Time;durP1;ratioP1;P1;durP2;ratioP2;P2;SDS_P1;SDS_P2;PMS_P1;PMS_P2;Temp;Humidity;BMP_temperature;BMP_pressure;BME280_temperature;BME280_humidity;BME280_pressure;Samples;Min_cycle;Max_cycle;Signal;HPM_P1;HPM_P2
2021/12/15 00:01:21;;;;;;;;;;;9.90;99.90;;;;;;8373157;28;19925;-69
2021/12/15 00:05:24;;;;;;;;;;;9.90;99.90;;;;;;8395910;28;20008;-69
2021/12/15 00:09:27;;;;;;;;;;;9.90;99.90;;;;;;8374391;28;19958;-69
2021/12/15 00:13:29;;;;;;;;;;;9.90;99.90;;;;;;8385172;28;19979;-69
2021/12/15 00:17:30;;;;;;;;;;;9.90;99.90;;;;;;8390889;28;19976;-69
2021/12/15 00:21:32;;;;;;;;;;;9.90;99.90;;;;;;8395259;28;19960;-69
2021/12/15 00:25:35;;;;;;;;;;;9.90;99.90;;;;;;8397190;28;19925;-69
2021/12/15 00:29:37;;;;;;;;;;;9.90;99.90;;;;;;8395203;28;19931;-69
2021/12/15 00:33:39;;;;;;;;;;;9.90;99.90;;;;;;8392052;28;19924;-70
2021/12/15 00:37:41;;;;;;;;;;;9.90;99.90;;;;;;8395108;28;19974;-70
2021/12/15 00:41:43;;;;;;;;;;;9.90;99.90;;;;;;8387685;28;19979;-70
2021/12/15 00:45:45;;;;;;;;;;;9.90;99.90;;;;;;8391993;28;19925;-69
2021/12/15 00:49:47;;;;;;;;;;;9.90;99.90;;;;;;8394867;28;19959;-69
2021/12/15 00:53:48;;;;;;;;;;;9.80;99.90;;;;;;8388347;28;20323;-69
2021/12/15 00:57:50;;;;;;;;;;;9.80;99.90;;;;;;8394776;28;19963;-69
2021/12/15 01:01:53;;;;;;;;;;;9.90;99.90;;;;;;8401737;28;19925;-69
2021/12/15 01:05:59;;;;;;;;;;;9.90;99.90;;;;;;8396812;28;19933;-69
2021/12/15 01:10:01;;;;;;;;;;;9.90;99.90;;;;;;8382939;28;19931;-69
2021/12/15 01:22:46;;;;;;;;;;;9.90;99.90;;;;;;8392397;28;19955;-69
2021/12/15 01:26:47;;;;;;;;;;;9.90;99.90;;;;;;8394915;28;19975;-69
2021/12/15 01:30:49;;;;;;;;;;;9.90;99.90;;;;;;8398084;28;19959;-69
2021/12/15 01:34:52;;;;;;;;;;;9.90;99.90;;;;;;8399081;28;19971;-70
2021/12/15 01:38:54;;;;;;;;;;;9.90;99.90;;;;;;8384314;28;19948;-69
2021/12/15 01:42:56;;;;;;;;;;;9.90;99.90;;;;;;8389262;28;19985;-69
2021/12/15 01:47:00;;;;;;;;;;;9.90;99.90;;;;;;8386010;28;20047;-70
2021/12/15 01:51:03;;;;;;;;;;;9.90;99.90;;;;;;8389124;28;19924;-70
2021/12/15 01:55:12;;;;;;;;;;;9.90;99.90;;;;;;8389044;28;20369;-70
2021/12/15 01:59:15;;;;;;;;;;;9.90;99.90;;;;;;8369151;28;20042;-69
2021/12/15 02:03:17;;;;;;;;;;;9.90;99.90;;;;;;8402349;28;19933;-69
2021/12/15 02:07:19;;;;;;;;;;;9.90;99.90;;;;;;8387991;28;19925;-69
2021/12/15 02:11:21;;;;;;;;;;;9.90;99.90;;;;;;8393514;28;20755;-69
2021/12/15 02:15:25;;;;;;;;;;;9.90;99.90;;;;;;8394309;28;19936;-69
2021/12/15 02:19:28;;;;;;;;;;;9.90;99.90;;;;;;8392229;28;19946;-69
2021/12/15 02:23:35;;;;;;;;;;;9.90;99.90;;;;;;8392301;28;20027;-69
2021/12/15 02:27:38;;;;;;;;;;;9.90;99.90;;;;;;8391019;28;19971;-69
2021/12/15 02:40:17;;;;;;;;;;;9.90;99.90;;;;;;8387459;28;19963;-69
2021/12/15 02:44:21;;;;;;;;;;;9.90;99.90;;;;;;8403219;28;19932;-69
2021/12/15 02:48:23;;;;;;;;;;;9.90;99.90;;;;;;8384723;28;20031;-69
2021/12/15 02:52:26;;;;;;;;;;;9.90;99.90;;;;;;8398653;28;19927;-69
2021/12/15 02:56:28;;;;;;;;;;;9.90;99.90;;;;;;8383089;28;20022;-70
2021/12/15 03:00:44;;;;;;;;;;;9.90;99.90;;;;;;8391714;28;20395;-70
2021/12/15 03:04:52;;;;;;;;;;;9.90;99.90;;;;;;8388142;28;20015;-70
2021/12/15 03:09:15;;;;;;;;;;;9.80;99.90;;;;;;8383738;28;19968;-69
2021/12/15 03:17:38;;;;;;;;;;;9.90;99.90;;;;;;8393058;28;20027;-69
2021/12/15 03:21:40;;;;;;;;;;;9.90;99.90;;;;;;8383623;28;19971;-69
2021/12/15 03:25:41;;;;;;;;;;;9.90;99.90;;;;;;8391204;28;19930;-69
2021/12/15 03:34:26;;;;;;;;;;;9.90;99.90;;;;;;8391539;28;19925;-69
2021/12/15 03:38:28;;;;;;;;;;;9.90;99.90;;;;;;8397201;28;19933;-70
2021/12/15 03:42:41;;;;;;;;;;;9.80;99.90;;;;;;8391394;28;20359;-69
2021/12/15 03:46:43;;;;;;;;;;;9.80;99.90;;;;;;8392760;28;19960;-69
2021/12/15 03:50:46;;;;;;;;;;;9.90;99.90;;;;;;8389669;28;19925;-69
2021/12/15 03:54:48;;;;;;;;;;;9.90;99.90;;;;;;8389442;28;20356;-70
2021/12/15 03:58:50;;;;;;;;;;;9.90;99.90;;;;;;8386416;28;20406;-70
2021/12/15 04:02:52;;;;;;;;;;;9.90;99.90;;;;;;8391124;28;19932;-70
2021/12/15 04:06:54;;;;;;;;;;;9.90;99.90;;;;;;8388571;28;20421;-70
2021/12/15 04:10:56;;;;;;;;;;;9.90;99.90;;;;;;8386049;28;19957;-69
2021/12/15 04:15:18;;;;;;;;;;;9.90;99.90;;;;;;8388905;28;19974;-69
2021/12/15 04:19:22;;;;;;;;;;;9.90;99.90;;;;;;8384039;28;19932;-69
2021/12/15 04:23:24;;;;;;;;;;;9.90;99.90;;;;;;8393229;28;19971;-69
2021/12/15 04:27:26;;;;;;;;;;;9.90;99.90;;;;;;8393502;28;19960;-69
2021/12/15 04:31:29;;;;;;;;;;;9.90;99.90;;;;;;8403833;28;20284;-69
2021/12/15 04:35:30;;;;;;;;;;;10.00;99.90;;;;;;8389634;28;20291;-70
2021/12/15 04:39:32;;;;;;;;;;;9.90;99.90;;;;;;8397903;28;20004;-69
2021/12/15 04:43:35;;;;;;;;;;;10.00;99.90;;;;;;8399572;28;19925;-69
2021/12/15 04:47:36;;;;;;;;;;;9.90;99.90;;;;;;8380823;28;19924;-70
2021/12/15 04:51:38;;;;;;;;;;;10.00;99.90;;;;;;8387571;28;19975;-70
2021/12/15 04:55:40;;;;;;;;;;;10.00;99.90;;;;;;8386527;28;19925;-69
2021/12/15 04:59:42;;;;;;;;;;;10.00;99.90;;;;;;8407858;28;19928;-69
2021/12/15 05:03:44;;;;;;;;;;;10.00;99.90;;;;;;8397570;28;20003;-69
2021/12/15 05:07:46;;;;;;;;;;;10.00;99.90;;;;;;8392448;28;19959;-69
2021/12/15 05:11:49;;;;;;;;;;;10.00;99.90;;;;;;8398139;28;19947;-69
2021/12/15 05:15:51;;;;;;;;;;;10.00;99.90;;;;;;8393226;28;19968;-69
2021/12/15 05:19:57;;;;;;;;;;;10.00;99.90;;;;;;8389214;28;19970;-70
2021/12/15 05:24:08;;;;;;;;;;;10.00;99.90;;;;;;8392061;28;19924;-70
2021/12/15 05:28:09;;;;;;;;;;;10.00;99.90;;;;;;8389686;28;19929;-70
2021/12/15 05:32:12;;;;;;;;;;;10.00;99.90;;;;;;8399466;28;19928;-70
2021/12/15 05:36:13;;;;;;;;;;;10.00;99.90;;;;;;8378968;28;19928;-70
2021/12/15 05:40:15;;;;;;;;;;;10.00;99.90;;;;;;8389098;28;19964;-70
2021/12/15 05:44:17;;;;;;;;;;;10.00;99.90;;;;;;8388785;28;19931;-70
2021/12/15 05:48:19;;;;;;;;;;;10.00;99.90;;;;;;8394367;28;19974;-70
2021/12/15 05:52:21;;;;;;;;;;;10.00;99.90;;;;;;8388155;28;19925;-70
2021/12/15 05:56:23;;;;;;;;;;;10.00;99.90;;;;;;8392240;28;19963;-70
2021/12/15 06:00:26;;;;;;;;;;;10.00;99.90;;;;;;8398585;28;20380;-70
2021/12/15 06:04:28;;;;;;;;;;;10.00;99.90;;;;;;8387862;28;19928;-70
2021/12/15 06:08:30;;;;;;;;;;;10.00;99.90;;;;;;8374651;28;19975;-70
2021/12/15 06:12:32;;;;;;;;;;;10.00;99.90;;;;;;8379178;28;19932;-70
2021/12/15 06:16:35;;;;;;;;;;;10.00;99.90;;;;;;8386244;28;19932;-70
2021/12/15 06:20:37;;;;;;;;;;;10.10;99.90;;;;;;8364950;28;19924;-70
2021/12/15 06:24:38;;;;;;;;;;;10.10;99.90;;;;;;8397489;28;21575;-70
2021/12/15 06:28:40;;;;;;;;;;;10.10;99.90;;;;;;8352246;28;19925;-70
2021/12/15 06:32:42;;;;;;;;;;;10.10;99.90;;;;;;8379544;28;19928;-70
2021/12/15 06:36:44;;;;;;;;;;;10.10;99.90;;;;;;8385492;28;19924;-70
2021/12/15 06:40:49;;;;;;;;;;;10.10;99.90;;;;;;8377275;28;20348;-70
2021/12/15 06:44:50;;;;;;;;;;;10.00;99.90;;;;;;8390876;28;19975;-70
2021/12/15 06:58:10;;;;;;;;;;;10.00;99.90;;;;;;8380638;28;20010;-70
2021/12/15 07:01:55;;;;;;;;;;;10.10;99.90;;;;;;8379969;28;19932;-70
2021/12/15 07:05:56;;;;;;;;;;;10.10;99.90;;;;;;8380594;28;19962;-70
2021/12/15 07:09:58;;;;;;;;;;;10.10;99.90;;;;;;8379257;28;19976;-70
2021/12/15 07:14:03;;;;;;;;;;;10.10;99.90;;;;;;8386509;28;20348;-70
2021/12/15 07:18:08;;;;;;;;;;;10.10;99.90;;;;;;8371186;28;20376;-69
2021/12/15 07:22:28;;;;;;;;;;;10.10;99.90;;;;;;8388282;28;19951;-70
2021/12/15 07:26:30;;;;;;;;;;;10.10;99.90;;;;;;8374903;28;19933;-70
2021/12/15 07:30:32;;;;;;;;;;;10.10;99.90;;;;;;8390718;28;19970;-70
2021/12/15 07:34:33;;;;;;;;;;;10.10;99.90;;;;;;8385687;28;19967;-70
2021/12/15 07:38:41;;;;;;;;;;;10.10;99.90;;;;;;8377309;28;19925;-70
2021/12/15 07:42:55;;;;;;;;;;;10.10;99.90;;;;;;8370034;28;20429;-70
2021/12/15 07:46:56;;;;;;;;;;;10.10;99.90;;;;;;8379575;28;22503;-70
2021/12/15 07:50:59;;;;;;;;;;;10.10;99.90;;;;;;8381234;28;20032;-70
2021/12/15 07:55:00;;;;;;;;;;;10.10;99.90;;;;;;8377477;28;20380;-70
2021/12/15 07:59:02;;;;;;;;;;;10.10;99.90;;;;;;8379572;28;20015;-70
2021/12/15 08:03:04;;;;;;;;;;;10.20;99.90;;;;;;8372635;28;19925;-70
2021/12/15 08:07:06;;;;;;;;;;;10.20;99.90;;;;;;8370674;28;19943;-70
2021/12/15 08:11:08;;;;;;;;;;;10.20;99.90;;;;;;8356405;28;20418;-70
2021/12/15 08:15:10;;;;;;;;;;;10.20;99.90;;;;;;8384190;28;19933;-71
2021/12/15 08:19:15;;;;;;;;;;;10.20;99.90;;;;;;8359949;28;19970;-70
2021/12/15 08:23:17;;;;;;;;;;;10.20;99.90;;;;;;8391205;28;19960;-70
2021/12/15 08:27:19;;;;;;;;;;;10.20;99.90;;;;;;8365512;28;19928;-70
2021/12/15 08:31:21;;;;;;;;;;;10.20;99.90;;;;;;8381450;28;19968;-70
2021/12/15 08:35:28;;;;;;;;;;;10.20;99.90;;;;;;8383488;28;19928;-70
2021/12/15 08:39:30;;;;;;;;;;;10.30;99.90;;;;;;8381381;28;19971;-70
2021/12/15 08:43:32;;;;;;;;;;;10.30;99.90;;;;;;8358445;28;20003;-70
2021/12/15 08:47:34;;;;;;;;;;;10.30;99.90;;;;;;8382120;28;19939;-70
2021/12/15 08:51:36;;;;;;;;;;;10.30;99.90;;;;;;8374521;28;20380;-70
2021/12/15 08:55:40;;;;;;;;;;;10.30;99.90;;;;;;8386686;28;19955;-70
2021/12/15 08:59:42;;;;;;;;;;;10.40;99.90;;;;;;8374947;28;20306;-70
2021/12/15 09:03:43;;;;;;;;;;;10.40;99.90;;;;;;8365693;28;19970;-70
2021/12/15 09:07:46;;;;;;;;;;;10.40;99.90;;;;;;8384520;28;19920;-70
2021/12/15 09:11:50;;;;;;;;;;;10.40;99.90;;;;;;8385323;28;19920;-70
2021/12/15 09:15:51;;;;;;;;;;;10.40;99.90;;;;;;8385268;28;20141;-70
2021/12/15 09:19:53;;;;;;;;;;;10.40;99.90;;;;;;8355373;28;19940;-70
2021/12/15 09:23:55;;;;;;;;;;;10.40;99.90;;;;;;8381424;28;20310;-70
2021/12/15 09:27:58;;;;;;;;;;;10.40;99.90;;;;;;8385987;28;20059;-70
2021/12/15 09:32:00;;;;;;;;;;;10.50;99.90;;;;;;8369957;28;20407;-70
2021/12/15 09:36:03;;;;;;;;;;;10.50;99.90;;;;;;8384908;28;20236;-70
2021/12/15 09:40:06;;;;;;;;;;;10.50;99.90;;;;;;8383023;28;19959;-70
2021/12/15 09:44:11;;;;;;;;;;;10.50;99.90;;;;;;8356826;28;19964;-70
2021/12/15 10:18:23;;;;;;;;;;;10.70;99.90;;;;;;8384390;28;19935;-70
2021/12/15 10:22:31;;;;;;;;;;;10.70;99.90;;;;;;8381280;28;20398;-70
2021/12/15 10:26:33;;;;;;;;;;;10.80;99.90;;;;;;8382526;28;19920;-70
2021/12/15 10:30:40;;;;;;;;;;;10.80;99.90;;;;;;8363218;28;19928;-70
2021/12/15 10:34:44;;;;;;;;;;;10.80;99.90;;;;;;8380415;28;19923;-70
2021/12/15 10:38:48;;;;;;;;;;;10.80;99.90;;;;;;8380275;28;20010;-70
2021/12/15 10:42:59;;;;;;;;;;;10.90;99.90;;;;;;8380055;28;20413;-70
2021/12/15 10:47:05;;;;;;;;;;;10.90;99.90;;;;;;8376726;28;20090;-70
2021/12/15 10:51:21;;;;;;;;;;;10.90;99.90;;;;;;8378977;28;19929;-70
2021/12/15 10:55:36;;;;;;;;;;;11.00;99.90;;;;;;8380759;28;19966;-70
2021/12/15 10:59:40;;;;;;;;;;;11.00;99.90;;;;;;8353516;28;19968;-70
2021/12/15 11:04:00;;;;;;;;;;;11.00;99.90;;;;;;8380508;28;20341;-71
2021/12/15 11:08:01;;;;;;;;;;;11.00;99.90;;;;;;8377086;28;19978;-70
2021/12/15 11:12:23;;;;;;;;;;;11.00;99.90;;;;;;8386485;28;19931;-71
2021/12/15 11:16:29;;;;;;;;;;;11.00;99.90;;;;;;8384531;28;19932;-70
2021/12/15 11:20:41;;;;;;;;;;;10.90;99.90;;;;;;8381262;28;19924;-70
2021/12/15 11:24:44;;;;;;;;;;;11.00;99.90;;;;;;8380325;28;19944;-70
2021/12/15 11:28:47;;;;;;;;;;;11.00;99.90;;;;;;8382369;28;19947;-70
2021/12/15 11:32:51;;;;;;;;;;;11.00;99.90;;;;;;8384276;28;19924;-70
2021/12/15 11:36:54;;;;;;;;;;;11.00;99.90;;;;;;8385241;28;20589;-70
2021/12/15 11:40:56;;;;;;;;;;;11.00;99.90;;;;;;8363082;28;19929;-70
2021/12/15 11:45:04;;;;;;;;;;;11.00;99.90;;;;;;8386128;28;19931;-70
2021/12/15 11:49:16;;;;;;;;;;;11.10;99.90;;;;;;8385545;28;19927;-70
2021/12/15 11:53:22;;;;;;;;;;;11.10;99.90;;;;;;8381743;28;19967;-69
2021/12/15 11:57:28;;;;;;;;;;;11.10;99.90;;;;;;8379101;28;20019;-70
2021/12/15 12:01:50;;;;;;;;;;;11.20;99.90;;;;;;8360985;28;19924;-70
2021/12/15 12:05:52;;;;;;;;;;;11.20;99.90;;;;;;8346642;28;19924;-70
2021/12/15 12:09:56;;;;;;;;;;;11.20;99.90;;;;;;8373920;28;19967;-70
2021/12/15 12:13:59;;;;;;;;;;;11.30;99.90;;;;;;8370913;28;20279;-70
2021/12/15 12:18:08;;;;;;;;;;;11.30;99.90;;;;;;8374287;28;19932;-70
2021/12/15 12:22:11;;;;;;;;;;;11.40;99.90;;;;;;8376712;28;20028;-70
2021/12/15 12:26:12;;;;;;;;;;;11.40;99.90;;;;;;8374645;28;19925;-70
2021/12/15 12:30:16;;;;;;;;;;;11.40;99.90;;;;;;8375329;28;20167;-70
2021/12/15 12:34:18;;;;;;;;;;;11.40;99.90;;;;;;8375994;28;19955;-70
2021/12/15 12:38:22;;;;;;;;;;;11.50;99.90;;;;;;8378228;28;20023;-70
2021/12/15 12:42:34;;;;;;;;;;;11.50;99.90;;;;;;8380449;28;19920;-70
2021/12/15 12:46:43;;;;;;;;;;;11.50;99.90;;;;;;8378533;28;19928;-70
2021/12/15 12:57:56;;;;;;;;;;;11.50;99.90;;;;;;8384712;28;19931;-71
2021/12/15 12:59:48;;;;;;;;;;;11.40;99.90;;;;;;8385469;28;19928;-69
2021/12/15 13:03:56;;;;;;;;;;;11.40;99.90;;;;;;8364021;28;19928;-70
2021/12/15 13:07:59;;;;;;;;;;;11.40;99.90;;;;;;8379022;28;19967;-70
2021/12/15 13:12:15;;;;;;;;;;;11.40;99.90;;;;;;8382788;28;19928;-70
2021/12/15 13:16:26;;;;;;;;;;;11.40;99.90;;;;;;8384239;28;19964;-70
2021/12/15 13:20:30;;;;;;;;;;;11.30;99.90;;;;;;8382537;28;19920;-70
2021/12/15 13:29:21;;;;;;;;;;;11.30;99.90;;;;;;8381353;28;19971;-70
2021/12/15 13:33:36;;;;;;;;;;;11.30;99.90;;;;;;8374997;28;20030;-70
2021/12/15 13:37:50;;;;;;;;;;;11.30;99.90;;;;;;8384294;28;19958;-70
2021/12/15 13:46:00;;;;;;;;;;;11.20;99.90;;;;;;8381003;28;19928;-70
2021/12/15 13:50:15;;;;;;;;;;;11.20;99.90;;;;;;8380472;28;21277;-70
2021/12/15 13:54:21;;;;;;;;;;;11.20;99.90;;;;;;8352106;28;19972;-71
2021/12/15 13:58:23;;;;;;;;;;;11.20;99.90;;;;;;8374077;28;19978;-70
2021/12/15 14:02:26;;;;;;;;;;;11.20;99.90;;;;;;8380545;28;19995;-71
2021/12/15 14:06:28;;;;;;;;;;;11.10;99.90;;;;;;8362512;28;19931;-70
2021/12/15 14:10:30;;;;;;;;;;;11.10;99.90;;;;;;8379320;28;20410;-70
2021/12/15 14:14:31;;;;;;;;;;;11.10;99.90;;;;;;8357581;28;19928;-70
2021/12/15 14:18:34;;;;;;;;;;;11.10;99.90;;;;;;8382935;28;19924;-70
2021/12/15 14:22:35;;;;;;;;;;;11.10;99.90;;;;;;8381012;28;19956;-70
2021/12/15 14:26:37;;;;;;;;;;;11.10;99.90;;;;;;8364190;28;19928;-70
2021/12/15 14:30:39;;;;;;;;;;;11.00;99.90;;;;;;8381807;28;19980;-70
2021/12/15 14:34:42;;;;;;;;;;;11.00;99.90;;;;;;8381715;28;20019;-70
2021/12/15 14:38:46;;;;;;;;;;;11.00;99.90;;;;;;8378047;28;20225;-70
2021/12/15 14:43:01;;;;;;;;;;;11.00;99.90;;;;;;8357309;28;19924;-70
2021/12/15 14:47:08;;;;;;;;;;;11.00;99.90;;;;;;8382138;28;19975;-70
2021/12/15 14:51:10;;;;;;;;;;;11.00;99.90;;;;;;8354584;28;19954;-70
2021/12/15 14:55:17;;;;;;;;;;;11.00;99.90;;;;;;8379729;28;19972;-70
2021/12/15 14:59:40;;;;;;;;;;;10.90;99.90;;;;;;8370483;28;19932;-70
2021/12/15 15:03:55;;;;;;;;;;;10.90;99.90;;;;;;8379614;28;19936;-70
2021/12/15 15:07:58;;;;;;;;;;;10.90;99.90;;;;;;8381161;28;20340;-70
2021/12/15 15:12:02;;;;;;;;;;;10.90;99.90;;;;;;8378438;28;20019;-70
2021/12/15 15:16:06;;;;;;;;;;;10.90;99.90;;;;;;8381308;28;19955;-70
2021/12/15 15:20:14;;;;;;;;;;;10.90;99.90;;;;;;8380637;28;20399;-70
2021/12/15 15:24:23;;;;;;;;;;;10.90;99.90;;;;;;8378484;28;20011;-70
2021/12/15 15:28:29;;;;;;;;;;;10.90;99.90;;;;;;8379716;28;19970;-70
2021/12/15 15:32:33;;;;;;;;;;;10.90;99.90;;;;;;8379577;28;19926;-70
2021/12/15 15:36:35;;;;;;;;;;;10.80;99.90;;;;;;8380763;28;20451;-70
2021/12/15 15:40:55;;;;;;;;;;;10.80;99.90;;;;;;8379255;28;19931;-70
2021/12/15 15:44:57;;;;;;;;;;;10.80;99.90;;;;;;8366413;28;19964;-70
2021/12/15 15:48:58;;;;;;;;;;;10.80;99.90;;;;;;8379976;28;19931;-70
2021/12/15 15:53:01;;;;;;;;;;;10.80;99.90;;;;;;8379469;28;19975;-70
2021/12/15 15:57:06;;;;;;;;;;;10.80;99.90;;;;;;8381143;28;19970;-70
2021/12/15 16:01:09;;;;;;;;;;;10.80;99.90;;;;;;8378368;28;19971;-70
2021/12/15 16:05:12;;;;;;;;;;;10.80;99.90;;;;;;8380193;28;20467;-70
2021/12/15 16:09:15;;;;;;;;;;;10.70;99.90;;;;;;8367709;28;19978;-70
2021/12/15 16:13:17;;;;;;;;;;;10.70;99.90;;;;;;8379938;28;20357;-69
2021/12/15 16:17:40;;;;;;;;;;;10.70;99.90;;;;;;8382266;28;19920;-70
2021/12/15 16:26:11;;;;;;;;;;;10.60;99.90;;;;;;8385372;28;19920;-70
2021/12/15 16:30:14;;;;;;;;;;;10.60;99.90;;;;;;8368207;28;19995;-69
2021/12/15 16:34:29;;;;;;;;;;;10.60;99.90;;;;;;8361045;28;19963;-70
2021/12/15 16:38:31;;;;;;;;;;;10.60;99.90;;;;;;8379450;28;19979;-70
2021/12/15 16:42:52;;;;;;;;;;;10.60;99.90;;;;;;8381435;28;20008;-69
2021/12/15 16:47:01;;;;;;;;;;;10.60;99.90;;;;;;8381306;28;20337;-70
2021/12/15 16:51:05;;;;;;;;;;;10.60;99.90;;;;;;8382284;28;19976;-70
2021/12/15 16:55:07;;;;;;;;;;;10.50;99.90;;;;;;8382593;28;19967;-70
2021/12/15 16:59:14;;;;;;;;;;;10.50;99.90;;;;;;8381229;28;20330;-70
2021/12/15 17:03:15;;;;;;;;;;;10.50;99.90;;;;;;8383059;28;19920;-71
2021/12/15 17:07:18;;;;;;;;;;;10.50;99.90;;;;;;8366522;28;19924;-70
2021/12/15 17:11:19;;;;;;;;;;;10.50;99.90;;;;;;8382818;28;20415;-70
2021/12/15 17:15:36;;;;;;;;;;;10.50;99.90;;;;;;8357915;28;19935;-70
2021/12/15 17:19:45;;;;;;;;;;;10.50;99.90;;;;;;8381697;28;19968;-70
2021/12/15 17:23:51;;;;;;;;;;;10.40;99.90;;;;;;8395570;28;19967;-70
2021/12/15 17:28:16;;;;;;;;;;;10.40;99.90;;;;;;8383171;28;20326;-70
2021/12/15 17:32:18;;;;;;;;;;;10.40;99.90;;;;;;8385253;28;19927;-70
2021/12/15 17:36:20;;;;;;;;;;;10.50;99.90;;;;;;8358580;28;19921;-70
2021/12/15 17:40:25;;;;;;;;;;;10.40;99.90;;;;;;8386090;28;19960;-70
2021/12/15 17:44:36;;;;;;;;;;;10.40;99.90;;;;;;8383130;28;19979;-70
2021/12/15 17:48:39;;;;;;;;;;;10.40;99.90;;;;;;8369022;28;20059;-70
2021/12/15 17:52:42;;;;;;;;;;;10.40;99.90;;;;;;8383447;28;19920;-71
2021/12/15 17:56:47;;;;;;;;;;;10.40;99.90;;;;;;8379445;28;20024;-70
2021/12/15 18:00:53;;;;;;;;;;;10.40;99.90;;;;;;8363014;28;19963;-71
2021/12/15 18:04:55;;;;;;;;;;;10.40;99.90;;;;;;8387511;28;19924;-70
2021/12/15 18:08:56;;;;;;;;;;;10.40;99.90;;;;;;8388967;28;20015;-70
2021/12/15 18:12:58;;;;;;;;;;;10.30;99.90;;;;;;8381490;28;20011;-70
2021/12/15 18:17:00;;;;;;;;;;;10.40;99.90;;;;;;8375886;28;19921;-70
2021/12/15 18:21:03;;;;;;;;;;;10.30;99.90;;;;;;8377688;28;19920;-70
2021/12/15 18:25:06;;;;;;;;;;;10.30;99.90;;;;;;8372849;28;20032;-70
2021/12/15 18:29:09;;;;;;;;;;;10.30;99.90;;;;;;8372077;28;20065;-70
2021/12/15 18:33:12;;;;;;;;;;;10.30;99.90;;;;;;8371129;28;19962;-70
2021/12/15 18:37:15;;;;;;;;;;;10.30;99.90;;;;;;8373066;28;20355;-69
2021/12/15 18:41:18;;;;;;;;;;;10.30;99.90;;;;;;8370808;28;19960;-69
2021/12/15 18:45:20;;;;;;;;;;;10.30;99.90;;;;;;8355733;28;20382;-70
2021/12/15 18:49:26;;;;;;;;;;;10.30;99.90;;;;;;8358428;28;20238;-70
2021/12/15 18:53:29;;;;;;;;;;;10.30;99.90;;;;;;8358459;28;19932;-70
2021/12/15 18:57:32;;;;;;;;;;;10.30;99.90;;;;;;8357889;28;20220;-70
2021/12/15 19:01:37;;;;;;;;;;;10.30;99.90;;;;;;8361695;28;19968;-70
2021/12/15 19:05:39;;;;;;;;;;;10.30;99.90;;;;;;8363795;28;19924;-69
2021/12/15 19:09:41;;;;;;;;;;;10.30;99.90;;;;;;8353359;28;20007;-69
2021/12/15 19:13:43;;;;;;;;;;;10.30;99.90;;;;;;8357903;28;19950;-70
2021/12/15 19:17:45;;;;;;;;;;;10.30;99.90;;;;;;8343310;28;19930;-70
2021/12/15 19:21:47;;;;;;;;;;;10.20;99.90;;;;;;8345957;28;19921;-69
2021/12/15 19:25:49;;;;;;;;;;;10.20;99.90;;;;;;8360494;28;19996;-70
2021/12/15 19:29:52;;;;;;;;;;;10.10;99.90;;;;;;8363415;28;19967;-70
2021/12/15 19:33:54;;;;;;;;;;;10.10;99.90;;;;;;8358854;28;20375;-70
2021/12/15 19:37:56;;;;;;;;;;;10.00;99.90;;;;;;8378457;28;19924;-70
2021/12/15 19:41:59;;;;;;;;;;;10.00;99.90;;;;;;8373680;28;20407;-70
2021/12/15 19:46:02;;;;;;;;;;;9.90;99.90;;;;;;8358116;28;19948;-69
2021/12/15 19:50:12;;;;;;;;;;;9.90;99.90;;;;;;8344339;28;20371;-69
2021/12/15 19:54:14;;;;;;;;;;;9.90;99.90;;;;;;8340702;28;19971;-69
2021/12/15 19:58:17;;;;;;;;;;;9.80;99.90;;;;;;8344336;28;19960;-70
2021/12/15 20:02:19;;;;;;;;;;;9.80;99.90;;;;;;8356649;28;19960;-70
2021/12/15 20:06:24;;;;;;;14.70;8.05;;;9.70;99.90;;;;;;8358327;28;19924;-70
2021/12/15 20:10:26;;;;;;;;;;;9.70;99.90;;;;;;8355212;28;19960;-70
2021/12/15 20:14:28;;;;;;;;;;;9.60;99.90;;;;;;8372095;28;19928;-70
2021/12/15 20:18:31;;;;;;;;;;;9.60;99.90;;;;;;8354661;28;20269;-70
2021/12/15 20:22:32;;;;;;;14.70;8.05;;;9.60;99.90;;;;;;8355215;28;20384;-69
2021/12/15 20:26:34;;;;;;;15.10;7.82;;;9.50;99.90;;;;;;8355076;28;20091;-70
2021/12/15 20:30:38;;;;;;;13.35;7.88;;;9.50;99.90;;;;;;8356345;28;20071;-70
2021/12/15 20:34:40;;;;;;;;;;;9.40;99.90;;;;;;8354422;28;20076;-70
2021/12/15 20:38:41;;;;;;;;;;;9.40;99.90;;;;;;8355014;28;19924;-69
2021/12/15 20:42:43;;;;;;;;;;;9.40;99.90;;;;;;8352942;28;20379;-69
2021/12/15 20:46:45;;;;;;;;;;;9.30;99.90;;;;;;8377527;28;20323;-69
2021/12/15 20:50:47;;;;;;;;;;;9.30;99.90;;;;;;8355738;28;19921;-69
2021/12/15 20:54:51;;;;;;;;;;;9.20;99.90;;;;;;8382389;28;19966;-69
2021/12/15 20:58:53;;;;;;;;;;;9.20;99.90;;;;;;8385495;28;19957;-70
2021/12/15 21:02:55;;;;;;;;;;;9.20;99.90;;;;;;8378895;28;19924;-69
2021/12/15 21:06:59;;;;;;;;;;;9.10;99.90;;;;;;8359023;28;19943;-69
2021/12/15 21:11:07;;;;;;;;;;;9.00;99.90;;;;;;8362851;28;20343;-70
2021/12/15 21:15:11;;;;;;;;;;;9.00;99.90;;;;;;8380261;28;20375;-70
2021/12/15 21:19:13;;;;;;;;;;;8.90;99.90;;;;;;8366519;28;19971;-69
2021/12/15 21:23:16;;;;;;;;;;;8.90;99.90;;;;;;8379021;28;19928;-70
2021/12/15 21:27:21;;;;;;;;;;;8.80;99.90;;;;;;8358945;28;20168;-70
2021/12/15 21:31:24;;;;;;;;;;;8.80;99.90;;;;;;8377137;28;19935;-69
2021/12/15 21:35:27;;;;;;;;;;;8.80;99.90;;;;;;8344804;28;20025;-70
2021/12/15 21:39:29;;;;;;;;;;;8.80;99.90;;;;;;8366578;28;19929;-70
2021/12/15 21:43:31;;;;;;;;;;;8.80;99.90;;;;;;8366900;28;20007;-70
2021/12/15 21:47:33;;;;;;;;;;;8.80;99.90;;;;;;8382584;28;19982;-69
2021/12/15 21:51:35;;;;;;;;;;;8.80;99.90;;;;;;8381660;28;20023;-69
2021/12/15 21:55:38;;;;;;;;;;;8.80;99.90;;;;;;8371856;28;19963;-70
2021/12/15 21:59:40;;;;;;;;;;;8.80;99.90;;;;;;8380595;28;19964;-70
2021/12/15 22:03:43;;;;;;;;;;;8.80;99.90;;;;;;8356129;28;19920;-69
2021/12/15 22:07:47;;;;;;;;;;;8.80;99.90;;;;;;8389805;28;19920;-69
2021/12/15 22:11:51;;;;;;;;;;;8.80;99.90;;;;;;8367597;28;20348;-69
2021/12/15 22:15:54;;;;;;;;;;;8.80;99.90;;;;;;8377285;28;20248;-69
2021/12/15 22:19:56;;;;;;;;;;;8.80;99.90;;;;;;8387004;28;19920;-69
2021/12/15 22:23:59;;;;;;;;;;;8.80;99.90;;;;;;8394463;28;20344;-69
2021/12/15 22:28:02;;;;;;;;;;;8.80;99.90;;;;;;8388697;28;19960;-69
2021/12/15 22:32:07;;;;;;;;;;;8.80;99.90;;;;;;8379456;28;19994;-69
2021/12/15 22:36:09;;;;;;;;;;;8.80;99.90;;;;;;8385919;28;19936;-70
2021/12/15 22:40:12;;;;;;;;;;;8.70;99.90;;;;;;8386265;28;19972;-70
2021/12/15 22:44:14;;;;;;;;;;;8.70;99.90;;;;;;8371061;28;20415;-70
2021/12/15 22:48:17;;;;;;;;;;;8.70;99.90;;;;;;8374594;28;20387;-70
2021/12/15 22:52:18;;;;;;;;;;;8.70;99.90;;;;;;8353533;28;19982;-70
2021/12/15 22:56:20;;;;;;;;;;;8.60;99.90;;;;;;8399908;28;19927;-69
2021/12/15 23:00:33;;;;;;;;;;;8.60;99.90;;;;;;8395983;28;20364;-69
2021/12/15 23:04:35;;;;;;;;;;;8.60;99.90;;;;;;8385612;28;19976;-69
2021/12/15 23:08:38;;;;;;;;;;;8.50;99.90;;;;;;8386457;28;20362;-69
2021/12/15 23:12:40;;;;;;;;;;;8.50;99.90;;;;;;8367584;28;20011;-69
2021/12/15 23:16:41;;;;;;;;;;;8.50;99.90;;;;;;8381169;28;19920;-69
2021/12/15 23:20:47;;;;;;;;;;;8.50;99.90;;;;;;8370150;28;19931;-69
2021/12/15 23:24:49;;;;;;;;;;;8.50;99.90;;;;;;8370258;28;20299;-69
2021/12/15 23:28:52;;;;;;;;;;;8.50;99.90;;;;;;8378013;28;20360;-69
2021/12/15 23:32:54;;;;;;;;;;;8.50;99.90;;;;;;8376863;28;19927;-69
2021/12/15 23:36:56;;;;;;;;;;;8.50;99.90;;;;;;8371936;28;20444;-70
2021/12/15 23:41:26;;;;;;;;;;;8.50;99.90;;;;;;8375111;28;19967;-69
